Time;durP1;ratioP1;P1;durP2;ratioP2;P2;SDS_P1;SDS_P2;PMS_P1;PMS_P2;Temp;Humidity;BMP_temperature;BMP_pressure;BME280_temperature;BME280_humidity;BME280_pressure;Samples;Min_cycle;Max_cycle;Signal;HPM_P1;HPM_P2
2024/01/12 00:01:19;;;;;;;9.32;3.50;;;3.60;99.90;;;;;;5023810;28;20057;-82
2024/01/12 00:03:44;;;;;;;10.52;4.03;;;3.70;99.90;;;;;;5013369;28;20516;-82
2024/01/12 00:06:10;;;;;;;7.35;2.67;;;3.60;99.90;;;;;;5014105;28;20076;-81
2024/01/12 00:08:38;;;;;;;12.77;2.67;;;3.60;99.90;;;;;;5014372;28;20123;-81
2024/01/12 00:11:08;;;;;;;19.15;5.07;;;3.60;99.90;;;;;;5015376;28;20461;-81
2024/01/12 00:13:34;;;;;;;11.10;3.92;;;3.60;99.90;;;;;;5031152;28;20022;-81
2024/01/12 00:16:04;;;;;;;9.50;2.85;;;3.60;99.90;;;;;;5030697;28;20048;-82
2024/01/12 00:18:29;;;;;;;16.85;2.88;;;3.60;99.90;;;;;;5028977;28;20036;-82
2024/01/12 00:20:55;;;;;;;15.57;3.10;;;3.70;99.90;;;;;;5030178;28;20029;-84
2024/01/12 00:23:21;;;;;;;15.55;3.83;;;3.80;99.90;;;;;;5030664;28;20061;-84
2024/01/12 00:25:46;;;;;;;19.55;3.50;;;3.80;99.90;;;;;;5031401;28;20032;-83
2024/01/12 00:28:12;;;;;;;18.95;4.70;;;3.80;99.90;;;;;;5031485;28;20029;-84
2024/01/12 00:30:37;;;;;;;13.45;2.85;;;3.90;99.90;;;;;;5030148;28;20115;-84
2024/01/12 00:33:05;;;;;;;17.52;3.33;;;3.90;99.90;;;;;;5022701;28;20476;-84
2024/01/12 00:35:31;;;;;;;9.18;2.53;;;3.80;99.90;;;;;;5030335;28;20362;-84
2024/01/12 00:37:57;;;;;;;11.65;2.72;;;3.90;99.90;;;;;;5030046;28;20116;-84
2024/01/12 00:40:23;;;;;;;12.68;2.83;;;3.80;99.90;;;;;;5031076;28;20064;-83
2024/01/12 00:42:53;;;;;;;11.25;2.45;;;3.80;99.90;;;;;;5030715;28;20505;-83
2024/01/12 00:45:18;;;;;;;12.90;3.50;;;3.80;99.90;;;;;;5030114;28;20379;-82
2024/01/12 00:47:44;;;;;;;10.32;2.60;;;3.70;99.90;;;;;;5030917;28;20334;-82
2024/01/12 00:50:10;;;;;;;6.82;2.83;;;4.70;99.90;;;;;;5031536;28;20453;-83
2024/01/12 00:52:35;;;;;;;19.15;3.70;;;3.80;99.90;;;;;;5029485;28;20041;-82
2024/01/12 00:55:01;;;;;;;17.00;3.55;;;3.80;99.90;;;;;;5024452;28;20053;-84
2024/01/12 00:57:27;;;;;;;18.88;3.63;;;3.80;99.90;;;;;;5031161;28;20037;-83
2024/01/12 00:59:52;;;;;;;26.83;3.58;;;3.80;99.90;;;;;;5030485;28;20033;-83
2024/01/12 01:02:18;;;;;;;9.57;2.58;;;3.80;99.90;;;;;;5030953;28;20060;-83
2024/01/12 01:04:43;;;;;;;13.40;2.55;;;3.80;99.90;;;;;;5032880;28;20053;-83
2024/01/12 01:07:09;;;;;;;13.60;3.60;;;3.80;99.90;;;;;;5029747;28;20030;-83
2024/01/12 01:09:34;;;;;;;8.55;2.42;;;3.80;99.90;;;;;;5028371;28;20034;-82
2024/01/12 01:12:00;;;;;;;15.15;3.55;;;3.80;99.90;;;;;;5031501;28;20472;-82
2024/01/12 01:14:26;;;;;;;11.68;2.42;;;3.70;99.90;;;;;;5030179;28;20049;-83
2024/01/12 01:16:53;;;;;;;13.48;3.03;;;3.70;99.90;;;;;;5026690;28;20405;-83
2024/01/12 01:19:19;;;;;;;18.00;2.83;;;3.70;99.90;;;;;;5026970;28;20044;-82
2024/01/12 01:21:44;;;;;;;8.70;2.78;;;3.70;99.90;;;;;;5028699;28;20029;-83
2024/01/12 01:24:10;;;;;;;11.02;3.13;;;3.70;99.90;;;;;;5030442;28;20488;-83
2024/01/12 01:26:36;;;;;;;17.83;2.85;;;3.60;99.90;;;;;;5028970;28;20022;-83
2024/01/12 01:29:01;;;;;;;12.77;3.75;;;3.70;99.90;;;;;;5029765;28;20025;-82
2024/01/12 01:31:27;;;;;;;10.43;3.03;;;3.70;99.90;;;;;;5029701;28;20030;-82
2024/01/12 01:33:52;;;;;;;14.27;2.63;;;3.70;99.90;;;;;;5028689;28;20045;-83
2024/01/12 01:36:18;;;;;;;9.07;3.00;;;3.70;99.90;;;;;;5029924;28;20022;-82
2024/01/12 01:38:43;;;;;;;16.73;3.13;;;4.80;99.90;;;;;;5021501;28;20030;-83
2024/01/12 01:41:09;;;;;;;13.85;3.00;;;3.70;99.90;;;;;;5028127;28;20026;-83
2024/01/12 01:43:34;;;;;;;18.55;4.43;;;3.70;99.90;;;;;;5029682;28;20072;-83
2024/01/12 01:46:00;;;;;;;10.73;3.10;;;3.70;99.90;;;;;;5029286;28;20122;-83
2024/01/12 01:48:26;;;;;;;19.17;3.42;;;3.70;99.90;;;;;;5029680;28;20175;-83
2024/01/12 01:50:53;;;;;;;8.20;3.20;;;3.70;99.90;;;;;;5029628;28;20063;-83
2024/01/12 01:53:19;;;;;;;4.70;2.42;;;3.70;99.90;;;;;;5028040;28;20047;-82
2024/01/12 01:55:45;;;;;;;4.85;2.33;;;3.60;99.90;;;;;;5028910;28;20045;-83
2024/01/12 01:58:11;;;;;;;12.45;3.47;;;3.60;99.90;;;;;;5027203;28;20033;-82
2024/01/12 02:00:38;;;;;;;8.60;2.70;;;3.60;99.90;;;;;;5027906;28;20404;-82
2024/01/12 02:03:04;;;;;;;12.43;2.97;;;3.60;99.90;;;;;;5028951;28;20056;-83
2024/01/12 02:05:30;;;;;;;6.85;2.42;;;3.40;99.90;;;;;;5029389;28;20083;-83
2024/01/12 02:07:59;;;;;;;10.27;2.83;;;3.50;99.90;;;;;;5029515;28;20037;-83
2024/01/12 02:10:25;;;;;;;8.85;2.72;;;3.60;99.90;;;;;;5028250;28;20029;-84
2024/01/12 02:12:50;;;;;;;11.23;3.30;;;3.50;99.90;;;;;;5029027;28;20355;-83
2024/01/12 02:15:18;;;;;;;10.20;2.65;;;3.50;99.90;;;;;;5029998;28;20033;-83
2024/01/12 02:17:43;;;;;;;6.55;2.25;;;3.50;99.90;;;;;;5027725;28;20041;-83
2024/01/12 02:20:09;;;;;;;10.48;2.78;;;3.50;99.90;;;;;;5022698;28;20036;-83
2024/01/12 02:22:35;;;;;;;15.48;2.90;;;3.50;99.90;;;;;;5028789;28;20461;-83
2024/01/12 02:25:01;;;;;;;10.90;3.28;;;3.50;99.90;;;;;;5029469;28;20033;-83
2024/01/12 02:27:27;;;;;;;15.57;3.67;;;3.50;99.90;;;;;;5028535;28;20079;-83
2024/01/12 02:29:54;;;;;;;14.82;3.05;;;3.50;99.90;;;;;;5027968;28;20033;-83
2024/01/12 02:32:20;;;;;;;11.70;2.60;;;3.50;99.90;;;;;;5029498;28;20041;-83
2024/01/12 02:34:46;;;;;;;11.13;3.05;;;3.50;99.90;;;;;;5028550;28;20044;-83
2024/01/12 02:37:11;;;;;;;9.13;2.95;;;3.50;99.90;;;;;;5028299;28;20493;-83
2024/01/12 02:39:37;;;;;;;16.75;3.20;;;3.50;99.90;;;;;;5029024;28;20033;-84
2024/01/12 02:42:03;;;;;;;5.57;2.80;;;3.50;99.90;;;;;;5025764;28;20061;-83
2024/01/12 02:44:28;;;;;;;14.48;3.42;;;3.50;99.90;;;;;;5027914;28;20117;-83
2024/01/12 02:46:54;;;;;;;12.15;3.15;;;3.50;99.90;;;;;;5028739;28;20072;-83
2024/01/12 02:49:19;;;;;;;7.93;2.63;;;3.50;99.90;;;;;;5028651;28;20049;-83
2024/01/12 02:51:45;;;;;;;6.75;2.90;;;3.50;99.90;;;;;;5027548;28;20053;-83
2024/01/12 02:54:11;;;;;;;8.82;3.05;;;3.50;99.90;;;;;;5028739;28;20143;-83
2024/01/12 02:56:37;;;;;;;11.38;2.78;;;3.50;99.90;;;;;;5030163;28;20021;-82
2024/01/12 02:59:02;;;;;;;9.93;3.38;;;3.50;99.90;;;;;;5032219;28;20037;-83
2024/01/12 03:01:28;;;;;;;8.73;3.25;;;3.50;99.90;;;;;;5029600;28;20037;-83
2024/01/12 03:03:54;;;;;;;7.40;2.60;;;3.50;99.90;;;;;;5029271;28;20454;-83
2024/01/12 03:06:20;;;;;;;10.02;2.63;;;3.50;99.90;;;;;;5032698;28;20090;-83
2024/01/12 03:08:45;;;;;;;15.23;3.17;;;3.50;99.90;;;;;;5032932;28;20124;-83
2024/01/12 03:11:11;;;;;;;14.75;2.80;;;3.50;99.90;;;;;;5032956;28;20104;-83
2024/01/12 03:13:37;;;;;;;13.07;3.13;;;3.50;99.90;;;;;;5031556;28;20084;-83
2024/01/12 03:16:06;;;;;;;18.65;3.78;;;3.50;99.90;;;;;;5033329;28;20021;-83
2024/01/12 03:18:32;;;;;;;8.30;3.10;;;3.50;99.90;;;;;;5035055;28;20469;-83
2024/01/12 03:20:58;;;;;;;10.93;2.88;;;3.50;99.90;;;;;;5031877;28;20035;-83
2024/01/12 03:23:24;;;;;;;15.25;3.05;;;3.50;99.90;;;;;;5031498;28;20116;-82
2024/01/12 03:25:49;;;;;;;9.63;2.95;;;3.50;99.90;;;;;;5032356;28;20034;-82
2024/01/12 03:28:15;;;;;;;13.32;2.47;;;3.50;99.90;;;;;;5031292;28;20031;-83
2024/01/12 03:30:41;;;;;;;11.63;3.45;;;3.50;99.90;;;;;;5033049;28;20029;-83
2024/01/12 03:33:09;;;;;;;12.93;2.75;;;3.50;99.90;;;;;;5031403;28;20030;-83
2024/01/12 03:35:35;;;;;;;7.90;3.20;;;3.50;99.90;;;;;;5032270;28;20037;-82
2024/01/12 03:38:01;;;;;;;12.00;3.13;;;3.50;99.90;;;;;;5031924;28;20030;-83
2024/01/12 03:40:27;;;;;;;12.50;3.75;;;3.50;99.90;;;;;;5031097;28;20026;-82
2024/01/12 03:42:53;;;;;;;8.68;2.47;;;3.50;99.90;;;;;;5028587;28;20048;-82
2024/01/12 03:45:18;;;;;;;11.52;2.78;;;3.50;99.90;;;;;;5031058;28;20037;-83
2024/01/12 03:47:44;;;;;;;11.75;2.83;;;3.70;99.90;;;;;;5031116;28;20536;-83
2024/01/12 03:50:10;;;;;;;7.38;2.65;;;3.50;99.90;;;;;;5031991;28;20083;-82
2024/01/12 03:52:35;;;;;;;12.32;3.53;;;3.50;99.90;;;;;;5031923;28;20687;-82
2024/01/12 03:55:01;;;;;;;10.73;4.13;;;3.50;99.90;;;;;;5031581;28;20037;-82
2024/01/12 03:57:26;;;;;;;11.35;3.00;;;3.50;99.90;;;;;;5031339;28;20534;-83
2024/01/12 03:59:52;;;;;;;12.00;3.00;;;3.50;99.90;;;;;;5032134;28;20029;-83
2024/01/12 04:02:18;;;;;;;5.88;2.63;;;3.50;99.90;;;;;;5032176;28;20109;-83
2024/01/12 04:04:44;;;;;;;6.95;2.20;;;3.50;99.90;;;;;;5030604;28;20022;-83
2024/01/12 04:07:09;;;;;;;17.77;3.55;;;3.50;99.90;;;;;;5031015;28;20048;-82
2024/01/12 04:09:35;;;;;;;10.85;2.92;;;3.50;99.90;;;;;;5030036;28;20025;-83
2024/01/12 04:12:02;;;;;;;8.57;2.92;;;3.50;99.90;;;;;;5031645;28;20551;-83
2024/01/12 04:14:28;;;;;;;10.85;2.58;;;3.50;99.90;;;;;;5031245;28;20041;-82
2024/01/12 04:16:53;;;;;;;9.88;2.95;;;3.50;99.90;;;;;;5030441;28;20087;-83
2024/01/12 04:19:19;;;;;;;6.10;2.70;;;3.60;99.90;;;;;;5030494;28;20405;-82
2024/01/12 04:21:44;;;;;;;12.10;3.33;;;3.50;99.90;;;;;;5031387;28;20663;-80
2024/01/12 04:24:11;;;;;;;21.70;4.35;;;3.50;99.90;;;;;;5027699;28;20061;-81
2024/01/12 04:26:36;;;;;;;6.88;2.38;;;3.50;99.90;;;;;;5027939;28;20032;-81
2024/01/12 04:29:02;;;;;;;7.32;3.03;;;3.60;99.90;;;;;;5033918;28;20022;-81
2024/01/12 04:31:28;;;;;;;17.52;3.30;;;3.60;99.90;;;;;;5033586;28;20048;-81
2024/01/12 04:33:53;;;;;;;8.77;2.90;;;3.50;99.90;;;;;;5033645;28;20155;-83
2024/01/12 04:36:24;;;;;;;10.68;2.35;;;3.50;99.90;;;;;;5033012;28;20060;-82
2024/01/12 04:38:50;;;;;;;15.02;3.60;;;3.50;99.90;;;;;;5027852;28;20022;-81
2024/01/12 04:41:16;;;;;;;9.68;3.55;;;3.50;99.90;;;;;;5031179;28;20036;-81
2024/01/12 04:43:41;;;;;;;7.32;2.45;;;3.50;99.90;;;;;;5030617;28;20068;-82
2024/01/12 04:46:07;;;;;;;9.82;2.85;;;3.50;99.90;;;;;;5028243;28;20560;-81
2024/01/12 04:48:32;;;;;;;3.83;2.08;;;3.50;99.90;;;;;;5027142;28;20473;-81
2024/01/12 04:50:58;;;;;;;8.82;3.15;;;3.60;99.90;;;;;;5030043;28;20121;-81
2024/01/12 04:53:25;;;;;;;16.15;2.95;;;3.50;99.90;;;;;;5031338;28;20385;-81
2024/01/12 04:55:50;;;;;;;8.57;2.33;;;3.50;99.90;;;;;;5028104;28;20477;-80
2024/01/12 04:58:16;;;;;;;7.28;2.45;;;3.60;99.90;;;;;;5029666;28;20103;-83
2024/01/12 05:00:41;;;;;;;14.43;2.83;;;3.60;99.90;;;;;;5031245;28;20033;-82
2024/01/12 05:03:07;;;;;;;17.42;3.65;;;3.60;99.90;;;;;;5031280;28;20393;-84
2024/01/12 05:05:33;;;;;;;8.80;2.38;;;3.60;99.90;;;;;;5030323;28;20030;-84
2024/01/12 05:07:58;;;;;;;9.75;2.90;;;3.60;99.90;;;;;;5025417;28;20030;-84
2024/01/12 05:10:24;;;;;;;8.32;3.05;;;3.60;99.90;;;;;;5028813;28;20029;-83
2024/01/12 05:12:49;;;;;;;8.05;2.95;;;3.50;99.90;;;;;;5029492;28;20040;-82
2024/01/12 05:15:15;;;;;;;6.28;2.55;;;3.60;99.90;;;;;;5031065;28;20473;-83
2024/01/12 05:17:40;;;;;;;11.00;2.90;;;3.60;99.90;;;;;;5030790;28;20029;-83
2024/01/12 05:20:06;;;;;;;11.40;3.20;;;3.60;99.90;;;;;;5028784;28;20414;-82
2024/01/12 05:22:33;;;;;;;12.18;3.25;;;3.60;99.90;;;;;;5029689;28;20037;-83
2024/01/12 05:24:59;;;;;;;4.65;2.22;;;3.60;99.90;;;;;;5029989;28;20116;-83
2024/01/12 05:27:24;;;;;;;8.75;2.25;;;3.60;99.90;;;;;;5026863;28;20127;-81
2024/01/12 05:29:50;;;;;;;8.73;2.92;;;3.60;99.90;;;;;;5024653;28;20021;-82
2024/01/12 05:32:15;;;;;;;8.30;2.72;;;3.60;99.90;;;;;;5031209;28;20473;-83
2024/01/12 05:34:41;;;;;;;11.38;2.65;;;3.60;99.90;;;;;;5028393;28;20469;-82
2024/01/12 05:37:06;;;;;;;4.50;2.30;;;3.50;99.90;;;;;;5030046;28;20033;-82
2024/01/12 05:39:32;;;;;;;8.15;3.55;;;3.60;99.90;;;;;;5029297;28;20044;-82
2024/01/12 05:41:58;;;;;;;14.88;5.30;;;3.60;99.90;;;;;;5030379;28;20056;-82
2024/01/12 05:44:23;;;;;;;7.00;3.30;;;3.60;99.90;;;;;;5029044;28;20124;-83
2024/01/12 05:46:49;;;;;;;14.93;3.88;;;3.60;99.90;;;;;;5028946;28;20140;-82
2024/01/12 05:49:14;;;;;;;9.13;3.20;;;3.60;99.90;;;;;;5028057;28;20068;-82
2024/01/12 05:51:40;;;;;;;8.18;2.92;;;3.60;99.90;;;;;;5025975;28;20063;-82
2024/01/12 05:54:05;;;;;;;13.27;3.42;;;3.60;99.90;;;;;;5028597;28;20045;-82
2024/01/12 05:56:31;;;;;;;12.05;3.60;;;3.60;99.90;;;;;;5027309;28;20033;-84
2024/01/12 05:58:56;;;;;;;13.07;3.00;;;3.60;99.90;;;;;;5028635;28;20037;-84
2024/01/12 06:01:22;;;;;;;8.73;2.92;;;3.60;99.90;;;;;;5024224;28;20032;-84
2024/01/12 06:03:47;;;;;;;9.10;3.60;;;3.60;99.90;;;;;;5029586;28;20060;-84
2024/01/12 06:06:13;;;;;;;10.95;3.00;;;3.60;99.90;;;;;;5028907;28;20029;-84
2024/01/12 06:08:39;;;;;;;11.65;4.30;;;3.50;99.90;;;;;;5028216;28;20049;-84
2024/01/12 06:11:05;;;;;;;13.20;2.97;;;3.60;99.90;;;;;;5030240;28;20116;-84
2024/01/12 06:13:30;;;;;;;12.65;3.40;;;3.50;99.90;;;;;;5025123;28;20040;-83
2024/01/12 06:15:56;;;;;;;9.73;3.47;;;3.60;99.90;;;;;;5028392;28;20060;-84
2024/01/12 06:18:21;;;;;;;18.73;4.45;;;3.60;99.90;;;;;;5029140;28;20045;-84
2024/01/12 06:20:47;;;;;;;10.20;4.07;;;3.50;99.90;;;;;;5029176;28;20467;-83
2024/01/12 06:23:14;;;;;;;7.75;3.25;;;3.50;99.90;;;;;;5028105;28;20029;-84
2024/01/12 06:25:39;;;;;;;13.77;3.28;;;3.50;99.90;;;;;;5028114;28;20581;-84
2024/01/12 06:28:06;;;;;;;9.10;2.80;;;3.50;99.90;;;;;;5029007;28;20108;-84
2024/01/12 06:30:31;;;;;;;13.40;4.05;;;3.50;99.90;;;;;;5023664;28;20087;-84
2024/01/12 06:32:58;;;;;;;9.70;3.92;;;3.50;99.90;;;;;;5026241;28;20029;-83
2024/01/12 06:35:24;;;;;;;13.40;4.30;;;3.40;99.90;;;;;;5028205;28;20052;-84
2024/01/12 06:37:50;;;;;;;11.73;3.28;;;3.50;99.90;;;;;;5028484;28;20025;-84
2024/01/12 06:40:16;;;;;;;11.70;3.83;;;3.50;99.90;;;;;;5027339;28;20492;-83
2024/01/12 06:42:41;;;;;;;10.02;3.72;;;3.50;99.90;;;;;;5015512;28;20034;-83
2024/01/12 06:45:09;;;;;;;7.20;3.72;;;3.50;99.90;;;;;;5028423;28;20559;-84
2024/01/12 06:47:35;;;;;;;11.52;4.25;;;3.50;99.90;;;;;;5029418;28;20026;-83
2024/01/12 06:50:01;;;;;;;11.43;4.60;;;3.50;99.90;;;;;;5026888;28;20582;-84
2024/01/12 06:52:27;;;;;;;11.55;4.28;;;3.50;99.90;;;;;;5028120;28;20501;-83
2024/01/12 06:54:52;;;;;;;8.32;4.10;;;3.50;99.90;;;;;;5024741;28;20095;-84
2024/01/12 06:57:19;;;;;;;7.03;3.58;;;3.50;99.90;;;;;;5017873;28;20022;-83
2024/01/12 06:59:45;;;;;;;6.90;3.47;;;3.50;99.90;;;;;;5010789;28;20032;-83
2024/01/12 07:02:10;;;;;;;8.30;3.67;;;3.50;99.90;;;;;;5011511;28;20120;-83
2024/01/12 07:04:36;;;;;;;6.85;3.53;;;3.50;99.90;;;;;;5010675;28;20155;-84
2024/01/12 07:07:02;;;;;;;13.75;4.07;;;3.50;99.90;;;;;;5013346;28;20018;-84
2024/01/12 07:09:27;;;;;;;11.10;3.80;;;3.50;99.90;;;;;;5011942;28;20026;-83
2024/01/12 07:11:53;;;;;;;8.05;3.55;;;3.50;99.90;;;;;;5010948;28;20029;-83
2024/01/12 07:14:19;;;;;;;17.92;5.38;;;3.50;99.90;;;;;;5011607;28;20136;-83
2024/01/12 07:16:45;;;;;;;11.40;4.57;;;3.50;99.90;;;;;;5018946;28;20041;-84
2024/01/12 07:19:11;;;;;;;10.75;4.78;;;3.50;99.90;;;;;;5026895;28;20037;-84
2024/01/12 07:21:36;;;;;;;17.42;5.40;;;3.50;99.90;;;;;;5028250;28;20040;-83
2024/01/12 07:24:02;;;;;;;15.95;4.43;;;3.50;99.90;;;;;;5029814;28;20042;-82
2024/01/12 07:26:28;;;;;;;23.17;5.85;;;3.60;99.90;;;;;;5028883;28;20029;-82
2024/01/12 07:28:54;;;;;;;14.57;4.60;;;3.60;99.90;;;;;;5028062;28;20473;-83
2024/01/12 07:31:19;;;;;;;15.13;4.82;;;3.60;99.90;;;;;;5028151;28;20044;-84
2024/01/12 07:33:45;;;;;;;19.33;4.07;;;3.60;99.90;;;;;;5027862;28;20025;-83
2024/01/12 07:36:11;;;;;;;11.63;3.85;;;3.60;99.90;;;;;;5028806;28;20036;-83
2024/01/12 07:38:36;;;;;;;9.05;3.92;;;3.60;99.90;;;;;;5025353;28;20079;-81
2024/01/12 07:41:02;;;;;;;9.40;3.30;;;3.60;99.90;;;;;;5029239;28;20029;-84
2024/01/12 07:43:30;;;;;;;14.20;3.70;;;3.60;99.90;;;;;;5029112;28;20060;-85
2024/01/12 07:45:56;;;;;;;7.90;4.15;;;3.60;99.90;;;;;;5016862;28;20478;-85
2024/01/12 07:48:21;;;;;;;10.15;4.00;;;3.60;99.90;;;;;;5025141;28;20042;-85
2024/01/12 07:50:47;;;;;;;12.75;4.60;;;3.60;99.90;;;;;;5033134;28;20493;-86
2024/01/12 07:53:13;;;;;;;12.63;4.38;;;3.60;99.90;;;;;;5030242;28;20040;-84
2024/01/12 07:55:38;;;;;;;15.25;4.30;;;3.60;99.90;;;;;;5031647;28;20053;-84
2024/01/12 07:58:05;;;;;;;15.00;4.50;;;3.60;99.90;;;;;;5025159;28;20059;-84
2024/01/12 08:00:31;;;;;;;12.18;4.13;;;3.50;99.90;;;;;;5031671;28;20583;-83
2024/01/12 08:02:56;;;;;;;21.42;4.70;;;3.60;99.90;;;;;;5029673;28;20030;-84
2024/01/12 08:05:22;;;;;;;9.40;4.05;;;3.60;99.90;;;;;;5014682;28;20026;-84
2024/01/12 08:07:49;;;;;;;13.20;4.68;;;3.60;99.90;;;;;;5013547;28;20030;-84
2024/01/12 08:10:15;;;;;;;18.95;4.82;;;3.60;99.90;;;;;;5024165;28;20120;-83
2024/01/12 08:12:41;;;;;;;14.25;3.95;;;3.60;99.90;;;;;;5032116;28;20044;-83
2024/01/12 08:15:09;;;;;;;8.70;3.97;;;3.70;99.90;;;;;;5025745;28;20029;-83
2024/01/12 08:17:36;;;;;;;8.98;4.90;;;3.60;99.90;;;;;;5025052;28;20465;-82
2024/01/12 08:20:01;;;;;;;13.90;4.22;;;3.60;99.90;;;;;;5019513;28;20371;-83
2024/01/12 08:22:27;;;;;;;14.68;4.57;;;3.60;99.90;;;;;;5014451;28;20102;-83
2024/01/12 08:24:52;;;;;;;9.25;4.75;;;3.60;99.90;;;;;;5012046;28;20042;-83
2024/01/12 08:27:18;;;;;;;13.52;4.35;;;3.60;99.90;;;;;;5011785;28;20025;-83
2024/01/12 08:29:43;;;;;;;15.27;4.93;;;3.60;99.90;;;;;;5012055;28;20041;-83
2024/01/12 08:32:09;;;;;;;9.98;4.60;;;3.60;99.90;;;;;;5013821;28;20038;-83
2024/01/12 08:34:34;;;;;;;19.15;4.70;;;3.60;99.90;;;;;;5016677;28;20131;-83
2024/01/12 08:37:00;;;;;;;13.85;4.72;;;3.60;99.90;;;;;;5030383;28;20034;-83
2024/01/12 08:39:26;;;;;;;15.20;5.18;;;3.60;99.90;;;;;;5031770;28;20084;-84
2024/01/12 08:41:52;;;;;;;7.88;4.20;;;3.50;99.90;;;;;;5033124;28;20038;-83
2024/01/12 08:44:17;;;;;;;10.85;5.20;;;3.50;99.90;;;;;;5013773;28;20040;-81
2024/01/12 08:46:43;;;;;;;12.27;5.03;;;3.50;99.90;;;;;;5020433;28;20029;-83
2024/01/12 08:49:09;;;;;;;17.75;4.65;;;3.50;99.90;;;;;;5033387;28;20025;-84
2024/01/12 08:51:34;;;;;;;9.00;5.78;;;3.60;99.90;;;;;;5030380;28;20520;-82
2024/01/12 08:54:00;;;;;;;10.45;5.45;;;3.60;99.90;;;;;;5033481;28;20049;-81
2024/01/12 08:56:26;;;;;;;10.07;4.97;;;3.60;99.90;;;;;;5033072;28;20075;-83
2024/01/12 08:58:52;;;;;;;15.38;5.28;;;3.50;99.90;;;;;;5030682;28;20025;-82
2024/01/12 09:01:18;;;;;;;17.05;5.03;;;3.50;99.90;;;;;;5030794;28;20025;-82
2024/01/12 09:03:43;;;;;;;13.32;5.07;;;3.60;99.90;;;;;;5028201;28;20021;-83
2024/01/12 09:06:10;;;;;;;13.23;4.25;;;3.60;99.90;;;;;;5014832;28;20114;-85
2024/01/12 09:08:35;;;;;;;17.20;5.25;;;3.60;99.90;;;;;;5031473;28;20033;-81
2024/01/12 09:11:01;;;;;;;10.65;4.82;;;3.60;99.90;;;;;;5031683;28;20028;-82
2024/01/12 09:13:27;;;;;;;15.13;6.22;;;3.60;99.90;;;;;;5031787;28;20039;-81
2024/01/12 09:15:52;;;;;;;19.08;4.88;;;3.60;99.90;;;;;;5032679;28;20041;-82
2024/01/12 09:18:18;;;;;;;12.13;4.93;;;3.60;99.90;;;;;;5032131;28;20038;-83
2024/01/12 09:20:43;;;;;;;15.77;4.78;;;3.60;99.90;;;;;;5030805;28;20025;-88
2024/01/12 09:23:09;;;;;;;12.43;5.60;;;3.60;99.90;;;;;;5032490;28;20029;-82
2024/01/12 09:25:35;;;;;;;11.43;5.43;;;3.60;99.90;;;;;;5042902;28;20021;-83
2024/01/12 09:28:02;;;;;;;10.05;5.00;;;3.60;99.90;;;;;;5035717;28;20029;-84
2024/01/12 09:30:27;;;;;;;11.75;4.90;;;3.60;99.90;;;;;;5032068;28;20485;-83
2024/01/12 09:32:53;;;;;;;11.48;4.50;;;3.70;99.90;;;;;;5032007;28;20033;-83
2024/01/12 09:35:20;;;;;;;13.18;4.43;;;3.70;99.90;;;;;;5030835;28;20132;-83
2024/01/12 09:37:45;;;;;;;18.55;5.32;;;3.70;99.90;;;;;;5032643;28;20033;-83
2024/01/12 09:40:11;;;;;;;14.02;4.45;;;3.80;99.90;;;;;;5031044;28;20108;-84
2024/01/12 09:42:42;;;;;;;12.20;4.85;;;3.80;99.90;;;;;;5029911;28;20045;-82
2024/01/12 09:45:12;;;;;;;17.92;4.93;;;3.80;99.90;;;;;;5027049;28;20026;-82
2024/01/12 09:47:38;;;;;;;18.30;5.72;;;3.80;99.90;;;;;;5030901;28;20026;-83
2024/01/12 09:50:05;;;;;;;12.20;4.68;;;3.90;99.90;;;;;;5029538;28;20032;-82
2024/01/12 09:52:31;;;;;;;27.45;8.93;;;3.90;99.90;;;;;;5029973;28;20615;-83
2024/01/12 09:54:56;;;;;;;23.40;7.45;;;4.00;99.90;;;;;;5029828;28;20128;-82
2024/01/12 09:57:23;;;;;;;19.48;6.25;;;3.90;99.90;;;;;;5029661;28;20509;-82
2024/01/12 09:59:50;;;;;;;16.23;5.30;;;4.00;99.90;;;;;;5030782;28;20261;-84
2024/01/12 10:02:18;;;;;;;15.57;4.40;;;4.00;99.90;;;;;;5018289;28;20025;-85
2024/01/12 10:04:44;;;;;;;17.50;5.57;;;4.00;99.90;;;;;;5027264;28;20111;-82
2024/01/12 10:07:09;;;;;;;20.63;4.78;;;4.10;99.90;;;;;;5030437;28;20033;-85
2024/01/12 10:09:35;;;;;;;13.52;5.22;;;5.10;99.90;;;;;;5029906;28;20481;-83
2024/01/12 10:12:01;;;;;;;13.70;4.40;;;4.10;99.90;;;;;;5030329;28;20036;-83
2024/01/12 10:14:26;;;;;;;18.63;3.47;;;4.20;99.90;;;;;;5028112;28;20489;-85
2024/01/12 10:16:55;;;;;;;15.38;3.47;;;4.20;99.90;;;;;;5029853;28;20389;-83
2024/01/12 10:19:22;;;;;;;17.33;4.22;;;4.20;99.90;;;;;;5030217;28;20051;-84
2024/01/12 10:21:48;;;;;;;12.57;3.70;;;4.30;99.90;;;;;;5022806;28;20474;-83
2024/01/12 10:24:19;;;;;;;17.73;4.18;;;4.20;99.90;;;;;;5024217;28;20536;-82
2024/01/12 10:26:50;;;;;;;16.73;4.13;;;4.30;99.90;;;;;;5021477;28;20387;-84
2024/01/12 10:29:16;;;;;;;;;;;4.30;99.90;;;;;;5022178;28;20026;-83
2024/01/12 10:31:43;;;;;;;21.92;4.05;;;4.30;99.90;;;;;;5031834;28;19987;-84
2024/01/12 10:34:11;;;;;;;18.58;4.85;;;4.30;99.90;;;;;;5031997;28;20044;-79
2024/01/12 10:36:38;;;;;;;13.63;3.75;;;4.30;99.90;;;;;;5028674;28;20030;-85
2024/01/12 10:39:07;;;;;;;17.35;4.18;;;4.40;99.90;;;;;;5032130;28;20430;-84
2024/01/12 10:41:33;;;;;;;15.20;3.45;;;4.30;99.90;;;;;;5027852;28;20041;-86
2024/01/12 10:44:03;;;;;;;21.95;3.78;;;4.30;99.90;;;;;;5028996;28;20064;-83
2024/01/12 10:46:45;;;;;;;11.60;3.63;;;4.30;99.90;;;;;;5030385;28;20029;-82
2024/01/12 10:49:17;;;;;;;19.60;5.15;;;4.40;99.90;;;;;;5028784;28;20485;-83
2024/01/12 10:52:04;;;;;;;12.77;3.80;;;4.40;99.90;;;;;;5025830;28;20564;-87
2024/01/12 10:54:40;;;;;;;16.52;3.67;;;4.40;99.90;;;;;;5030381;28;20045;-88
2024/01/12 10:57:09;;;;;;;18.95;4.45;;;4.40;99.90;;;;;;5033020;28;20028;-89
2024/01/12 10:59:35;;;;;;;20.92;3.88;;;4.40;99.90;;;;;;5032679;28;20112;-86
2024/01/12 11:02:02;;;;;;;12.70;3.45;;;4.40;99.90;;;;;;5032505;28;20064;-87
2024/01/12 11:04:29;;;;;;;24.13;3.50;;;4.40;99.90;;;;;;5030814;28;20108;-84
2024/01/12 11:06:57;;;;;;;23.05;3.35;;;4.50;99.90;;;;;;5030429;28;20037;-83
2024/01/12 11:09:23;;;;;;;15.52;3.60;;;4.60;99.90;;;;;;5025187;28;20026;-85
2024/01/12 11:12:07;;;;;;;7.00;3.28;;;4.50;99.90;;;;;;5028955;28;20021;-84
2024/01/12 11:14:34;;;;;;;9.27;2.70;;;4.50;99.90;;;;;;5029339;28;20038;-85
2024/01/12 11:16:59;;;;;;;12.27;3.55;;;4.50;99.90;;;;;;5029978;28;20057;-84
2024/01/12 11:19:25;;;;;;;17.80;3.58;;;4.50;99.90;;;;;;5032725;28;20092;-84
2024/01/12 11:22:10;;;;;;;20.77;4.18;;;4.60;99.90;;;;;;5035869;28;20061;-84
2024/01/12 11:24:38;;;;;;;24.30;3.00;;;4.50;99.90;;;;;;5041514;28;20030;-83
2024/01/12 11:27:06;;;;;;;16.63;4.13;;;4.60;99.90;;;;;;5035713;28;20100;-87
2024/01/12 11:29:35;;;;;;;26.38;4.07;;;4.60;99.90;;;;;;5036383;28;20033;-91
2024/01/12 11:32:04;;;;;;;11.98;3.00;;;4.70;99.90;;;;;;5034743;28;20056;-87
2024/01/12 11:34:34;;;;;;;17.17;2.65;;;4.80;99.90;;;;;;5033922;28;20096;-84
2024/01/12 11:37:01;;;;;;;10.50;3.35;;;4.80;99.90;;;;;;5033800;28;20029;-83
2024/01/12 11:39:34;;;;;;;10.15;2.17;;;4.80;99.90;;;;;;5030620;28;20108;-83
2024/01/12 11:42:02;;;;;;;10.00;3.05;;;4.80;99.90;;;;;;5016416;28;20029;-83
2024/01/12 11:44:28;;;;;;;12.05;3.05;;;4.80;99.90;;;;;;5032797;28;20060;-83
2024/01/12 11:46:54;;;;;;;9.43;2.67;;;4.80;99.90;;;;;;5021530;28;20446;-83
2024/01/12 11:49:19;;;;;;;15.88;3.88;;;5.00;99.90;;;;;;5019293;28;20052;-83
2024/01/12 11:51:45;;;;;;;17.15;3.03;;;4.80;99.90;;;;;;5017216;28;20133;-83
2024/01/12 11:54:11;;;;;;;18.38;2.70;;;4.80;99.90;;;;;;5014028;28;20041;-82
2024/01/12 11:56:36;;;;;;;9.13;2.20;;;4.80;99.90;;;;;;5014043;28;20416;-83
2024/01/12 11:59:02;;;;;;;8.00;2.42;;;4.90;99.90;;;;;;5014361;28;20458;-83
2024/01/12 12:01:28;;;;;;;9.32;2.63;;;4.90;99.90;;;;;;5026800;28;20025;-82
2024/01/12 12:03:53;;;;;;;7.13;2.58;;;4.90;99.90;;;;;;5032387;28;20389;-85
2024/01/12 12:06:19;;;;;;;8.20;2.25;;;5.00;99.90;;;;;;5032787;28;20104;-84
2024/01/12 12:08:45;;;;;;;10.15;2.40;;;5.00;99.90;;;;;;5032392;28;20053;-85
2024/01/12 12:11:13;;;;;;;8.43;2.15;;;5.00;99.90;;;;;;5034318;28;20021;-85
2024/01/12 12:13:39;;;;;;;15.32;2.65;;;5.40;99.90;;;;;;5032823;28;20049;-84
2024/01/12 12:16:05;;;;;;;15.40;2.67;;;5.10;99.90;;;;;;5034231;28;20469;-83
2024/01/12 12:18:31;;;;;;;10.77;2.83;;;5.30;99.90;;;;;;5033548;28;20032;-85
2024/01/12 12:20:59;;;;;;;9.68;2.22;;;5.10;99.90;;;;;;5033549;28;20067;-85
2024/01/12 12:23:25;;;;;;;10.00;2.20;;;5.10;99.90;;;;;;5034288;28;20053;-84
2024/01/12 12:25:51;;;;;;;21.27;2.15;;;5.10;99.90;;;;;;5031033;28;20516;-83
2024/01/12 12:28:16;;;;;;;16.20;3.17;;;5.10;99.90;;;;;;5031936;28;20033;-84
2024/01/12 12:30:43;;;;;;;10.15;2.10;;;5.10;99.90;;;;;;5032030;28;20109;-84
2024/01/12 12:33:10;;;;;;;11.45;1.80;;;5.10;99.90;;;;;;5033738;28;20056;-83
2024/01/12 12:35:36;;;;;;;7.28;1.90;;;5.10;99.90;;;;;;5031987;28;20500;-83
2024/01/12 12:38:02;;;;;;;8.82;1.75;;;5.10;99.90;;;;;;5033046;28;20030;-84
2024/01/12 12:40:28;;;;;;;7.68;2.00;;;5.20;99.90;;;;;;5033642;28;20029;-84
2024/01/12 12:42:53;;;;;;;9.80;1.73;;;5.10;99.90;;;;;;5029085;28;20025;-84
2024/01/12 12:45:20;;;;;;;6.85;1.92;;;5.20;99.90;;;;;;5033156;28;20029;-84